Aviation Digital Data Service (ADDS)

Output produced by METARs form (1806 UTC 12 February 2016)
found at http://aviationweather.gov/adds/metars/
 
KLAN 121730Z 1218/1318 29015G25KT 4SM -SN BLSN OVC025 
     TEMPO 1218/1222 1SM -SN BLSN OVC015 
     FM122200 31015G25KT 5SM -SN OVC035 
     TEMPO 1222/1224 1/4SM +SN BLSN VV007 
     FM130500 32010KT 6SM -SN OVC035 
     FM131500 32012G22KT P6SM BKN040